createdAt,value
2023-05-25T00:01:03.149Z,88.20
2023-05-25T00:06:05.797Z,87.83
2023-05-25T00:11:07.728Z,87.33
2023-05-25T00:16:09.484Z,86.82
2023-05-25T00:21:11.980Z,86.58
2023-05-25T00:26:13.722Z,86.64
2023-05-25T00:31:15.705Z,86.04
2023-05-25T00:36:18.200Z,85.59
2023-05-25T00:41:20.940Z,85.20
2023-05-25T00:46:23.866Z,85.21
2023-05-25T00:51:26.462Z,84.99
2023-05-25T00:56:33.130Z,84.87
2023-05-25T01:01:40.295Z,84.56
2023-05-25T01:06:47.150Z,84.76
2023-05-25T01:11:51.374Z,85.15
2023-05-25T01:16:55.358Z,85.24
2023-05-25T01:22:08.102Z,85.32
2023-05-25T01:27:21.223Z,85.45
2023-05-25T01:32:25.004Z,85.99
2023-05-25T01:37:27.863Z,86.17
2023-05-25T01:42:31.858Z,86.13
2023-05-25T01:48:11.683Z,85.85
2023-05-25T01:53:23.907Z,85.39
2023-05-25T01:58:27.447Z,85.38
2023-05-25T02:03:29.333Z,85.01
2023-05-25T02:08:31.278Z,84.90
2023-05-25T02:13:34.956Z,84.93
2023-05-25T02:18:37.234Z,85.22
2023-05-25T02:23:39.057Z,85.10
2023-05-25T02:28:41.271Z,85.00
2023-05-25T02:33:43.087Z,85.12
2023-05-25T02:38:45.614Z,85.55
2023-05-25T02:43:48.144Z,85.50
2023-05-25T02:48:50.688Z,85.63
2023-05-25T02:53:53.309Z,84.91
2023-05-25T02:58:55.529Z,84.99
2023-05-25T03:04:15.616Z,84.63
2023-05-25T03:09:18.586Z,84.43
2023-05-25T03:14:22.565Z,84.60
2023-05-25T03:19:29.671Z,84.71
2023-05-25T03:24:31.493Z,84.76
2023-05-25T03:29:35.945Z,83.73
2023-05-25T03:34:38.396Z,83.80
2023-05-25T03:39:40.547Z,83.95
2023-05-25T03:44:42.898Z,85.21
2023-05-25T03:49:45.172Z,86.19
2023-05-25T03:54:48.055Z,86.74
2023-05-25T03:59:50.124Z,87.45
2023-05-25T04:07:13.464Z,91.86
2023-05-25T04:12:15.304Z,92.69
2023-05-25T04:17:19.096Z,93.40
2023-05-25T04:22:21.405Z,93.75
2023-05-25T04:27:23.268Z,93.87
2023-05-25T04:32:29.872Z,93.54
2023-05-25T04:38:12.452Z,93.78
2023-05-25T04:43:18.180Z,94.73
2023-05-25T04:48:21.615Z,93.92
2023-05-25T04:53:23.702Z,94.07
2023-05-25T04:58:26.191Z,93.94
2023-05-25T05:03:38.140Z,93.91
2023-05-25T05:08:41.802Z,93.79
2023-05-25T05:13:48.231Z,93.84
2023-05-25T05:18:50.660Z,94.06
2023-05-25T05:23:52.583Z,93.85
2023-05-25T05:28:54.663Z,93.37
2023-05-25T05:33:57.436Z,92.60
2023-05-25T05:39:01.059Z,92.52
2023-05-25T05:44:03.696Z,92.16
2023-05-25T05:49:05.458Z,92.37
2023-05-25T05:54:07.225Z,91.18
2023-05-25T05:59:11.806Z,90.15
2023-05-25T06:04:15.032Z,88.62
2023-05-25T06:09:17.806Z,89.25
2023-05-25T06:14:19.658Z,89.56
2023-05-25T06:19:21.529Z,89.24
2023-05-25T06:24:23.284Z,89.35
2023-05-25T06:29:25.246Z,90.60
2023-05-25T06:34:27.234Z,90.41
2023-05-25T06:39:29.212Z,90.12
2023-05-25T06:44:31.103Z,90.28
2023-05-25T06:49:36.734Z,89.31
2023-05-25T06:54:38.553Z,88.91
2023-05-25T06:59:40.468Z,87.84
2023-05-25T07:04:42.444Z,87.71
2023-05-25T07:09:44.334Z,88.22
2023-05-25T07:14:48.385Z,88.25
2023-05-25T07:19:50.123Z,87.37
2023-05-25T07:24:51.834Z,86.54
2023-05-25T07:29:53.921Z,85.17
2023-05-25T07:34:55.987Z,84.50
2023-05-25T07:39:57.983Z,84.72
2023-05-25T07:45:01.298Z,84.81
2023-05-25T07:50:03.244Z,84.01
2023-05-25T07:55:09.002Z,83.35
2023-05-25T08:00:12.782Z,83.07
2023-05-25T08:05:17.282Z,82.75
2023-05-25T08:10:19.407Z,82.60
2023-05-25T08:15:21.391Z,82.45
2023-05-25T08:20:25.237Z,82.24
2023-05-25T08:25:26.985Z,83.48
2023-05-25T08:30:29.264Z,82.72
2023-05-25T08:35:31.082Z,79.82
2023-05-25T08:40:32.810Z,78.42
2023-05-25T08:45:36.712Z,77.64
2023-05-25T08:50:41.366Z,77.08
2023-05-25T08:55:44.066Z,77.70
2023-05-25T09:00:55.811Z,78.82
2023-05-25T09:05:58.170Z,79.04
2023-05-25T09:11:02.422Z,79.46
2023-05-25T09:16:04.906Z,78.31
2023-05-25T09:21:06.615Z,78.67
2023-05-25T09:26:08.940Z,78.27
2023-05-25T09:31:10.973Z,76.88
2023-05-25T09:36:15.402Z,74.72
2023-05-25T09:41:17.213Z,75.05
2023-05-25T09:46:19.037Z,74.09
2023-05-25T09:51:21.758Z,73.78
2023-05-25T09:56:24.725Z,74.21
2023-05-25T10:01:27.358Z,73.50
2023-05-25T10:06:29.505Z,73.47
2023-05-25T10:11:33.920Z,72.59
2023-05-25T10:16:41.449Z,70.66
2023-05-25T10:22:14.082Z,71.19
2023-05-25T10:32:44.517Z,70.88
2023-05-25T10:37:47.732Z,69.66
2023-05-25T10:42:52.297Z,69.13
2023-05-25T10:47:54.134Z,69.94
2023-05-25T10:53:00.142Z,69.93
2023-05-25T10:58:10.482Z,70.27
2023-05-25T11:03:12.350Z,68.98
2023-05-25T11:08:17.764Z,70.54
2023-05-25T11:13:31.652Z,70.48
2023-05-25T11:18:41.637Z,68.80
2023-05-25T11:24:00.081Z,68.61
2023-05-25T11:29:15.938Z,68.85
2023-05-25T11:34:18.807Z,68.64
2023-05-25T11:39:23.406Z,67.75
2023-05-25T11:44:33.915Z,68.98
2023-05-25T11:49:42.040Z,69.37
2023-05-25T11:54:44.799Z,70.53
2023-05-25T12:00:02.054Z,71.92
2023-05-25T12:05:08.500Z,72.24
2023-05-25T12:10:13.078Z,71.62
2023-05-25T12:15:25.816Z,71.39
2023-05-25T12:20:27.776Z,71.15
2023-05-25T12:25:46.090Z,70.98
2023-05-25T12:30:52.041Z,70.97
2023-05-25T12:35:55.776Z,69.88
2023-05-25T12:41:07.967Z,69.79
2023-05-25T12:46:10.075Z,70.05
2023-05-25T12:51:12.310Z,70.12
2023-05-25T12:56:14.076Z,70.88
2023-05-25T13:01:16.092Z,71.33
2023-05-25T13:06:18.078Z,71.33
2023-05-25T13:11:19.795Z,71.60
2023-05-25T13:16:21.623Z,71.93
2023-05-25T13:21:23.617Z,71.98
2023-05-25T13:26:25.765Z,71.52
2023-05-25T13:31:27.821Z,70.47
2023-05-25T13:36:29.971Z,69.72
2023-05-25T13:41:31.761Z,69.96
2023-05-25T13:46:35.386Z,69.04
2023-05-25T13:51:38.356Z,67.68
2023-05-25T13:56:42.425Z,68.18
2023-05-25T14:01:44.356Z,67.21
2023-05-25T14:06:46.527Z,67.19
2023-05-25T14:11:48.500Z,66.97
2023-05-25T14:16:50.249Z,67.92
2023-05-25T14:22:11.220Z,68.30
2023-05-25T14:27:21.285Z,68.15
2023-05-25T14:32:22.997Z,68.39
2023-05-25T14:37:24.795Z,69.07
2023-05-25T14:42:27.147Z,69.80
2023-05-25T14:47:28.948Z,69.21
2023-05-25T14:52:30.800Z,68.64
2023-05-25T14:57:32.534Z,68.58
2023-05-25T15:02:34.368Z,69.21
2023-05-25T15:07:36.278Z,70.36
2023-05-25T15:12:38.054Z,71.11
2023-05-25T15:17:40.138Z,72.07
2023-05-25T15:22:42.036Z,72.17
2023-05-25T15:27:43.777Z,72.26
2023-05-25T15:32:45.534Z,71.84
2023-05-25T15:37:48.334Z,71.36
2023-05-25T15:42:50.368Z,71.75
2023-05-25T15:47:52.217Z,71.91
2023-05-25T15:52:54.073Z,72.45
2023-05-25T15:57:55.830Z,72.92
2023-05-25T16:02:58.283Z,73.77
2023-05-25T16:08:00.100Z,74.44
2023-05-25T16:13:01.887Z,74.79
2023-05-25T16:18:03.885Z,74.77
2023-05-25T16:23:06.451Z,74.40
2023-05-25T16:28:08.135Z,74.05
2023-05-25T16:33:09.944Z,74.26
2023-05-25T16:38:11.674Z,74.43
2023-05-25T16:43:13.381Z,74.23
2023-05-25T16:48:15.431Z,74.55
2023-05-25T16:53:17.285Z,74.57
2023-05-25T16:58:19.025Z,74.81
2023-05-25T17:03:20.734Z,75.64
2023-05-25T17:08:22.604Z,76.07
2023-05-25T17:13:24.291Z,76.62
2023-05-25T17:18:26.966Z,77.29
2023-05-25T17:23:28.803Z,77.60
2023-05-25T17:28:32.870Z,78.13
2023-05-25T17:33:34.639Z,78.34
2023-05-25T17:38:38.100Z,78.49
2023-05-25T17:43:39.800Z,78.68
2023-05-25T17:48:41.458Z,78.94
2023-05-25T17:53:43.150Z,79.05
2023-05-25T17:58:47.642Z,79.02
2023-05-25T18:03:53.953Z,79.70
2023-05-25T18:08:56.655Z,79.89
2023-05-25T18:13:58.446Z,80.04
2023-05-25T18:19:00.222Z,80.62
2023-05-25T18:24:01.923Z,80.57
2023-05-25T18:29:03.715Z,80.94
2023-05-25T18:34:06.918Z,81.22
2023-05-25T18:39:08.700Z,81.55
2023-05-25T18:44:10.492Z,81.59
2023-05-25T18:49:12.677Z,82.19
2023-05-25T18:54:14.397Z,82.23
2023-05-25T18:59:16.508Z,82.53
2023-05-25T19:04:18.421Z,83.10
2023-05-25T19:09:20.158Z,83.40
2023-05-25T19:14:21.890Z,84.26
2023-05-25T19:19:23.607Z,84.31
2023-05-25T19:24:25.311Z,84.68
2023-05-25T19:29:27.125Z,85.24
2023-05-25T19:34:28.863Z,85.60
2023-05-25T19:39:31.787Z,86.24
2023-05-25T19:44:33.468Z,86.74
2023-05-25T19:49:35.219Z,87.49
2023-05-25T19:54:38.078Z,88.18
2023-05-25T19:59:39.847Z,88.64
2023-05-25T20:04:41.520Z,88.69
2023-05-25T20:09:44.076Z,88.88
2023-05-25T20:14:45.754Z,88.50
2023-05-25T20:19:47.502Z,88.54
2023-05-25T20:24:50.167Z,89.03
2023-05-25T20:29:51.950Z,89.72
2023-05-25T20:34:53.646Z,90.41
2023-05-25T20:39:55.618Z,91.23
2023-05-25T20:45:00.165Z,91.33
2023-05-25T20:50:01.911Z,92.09
2023-05-25T20:55:03.940Z,92.04
2023-05-25T21:00:06.749Z,92.69
2023-05-25T21:05:09.063Z,92.69
2023-05-25T21:10:11.513Z,93.06
2023-05-25T21:15:19.118Z,93.16
2023-05-25T21:20:21.109Z,92.79
2023-05-25T21:25:22.998Z,92.83
2023-05-25T21:30:24.776Z,92.19
2023-05-25T21:35:26.597Z,92.04
2023-05-25T21:40:28.688Z,91.47
2023-05-25T21:45:31.240Z,91.01
2023-05-25T21:50:33.070Z,90.86
2023-05-25T21:55:54.837Z,90.76
2023-05-25T22:00:56.655Z,90.70
2023-05-25T22:05:58.565Z,90.52
2023-05-25T22:11:00.314Z,90.27
2023-05-25T22:16:02.077Z,90.48
2023-05-25T22:21:03.878Z,90.85
2023-05-25T22:26:05.828Z,90.29
2023-05-25T22:31:07.625Z,90.11
2023-05-25T22:36:09.376Z,89.90
2023-05-25T22:41:11.453Z,89.72
2023-05-25T22:46:13.242Z,89.67
2023-05-25T22:51:17.795Z,89.55
2023-05-25T22:56:19.504Z,89.50
2023-05-25T23:01:21.373Z,89.58
2023-05-25T23:06:23.198Z,89.45
2023-05-25T23:11:27.115Z,89.44
2023-05-25T23:16:29.507Z,89.41
2023-05-25T23:21:31.642Z,89.90
2023-05-25T23:26:33.686Z,89.91
2023-05-25T23:31:35.527Z,89.95
2023-05-25T23:36:37.339Z,89.67
2023-05-25T23:41:39.059Z,89.60
2023-05-25T23:46:41.865Z,89.75
2023-05-25T23:51:45.858Z,89.65
2023-05-25T23:56:49.544Z,89.81
